createdAt,value
2022-10-28T05:40:17.635Z,11.73
2022-10-28T05:42:46.779Z,12.80
2022-10-28T05:45:14.488Z,13.02
2022-10-28T05:47:46.317Z,14.02
2022-10-28T05:50:15.241Z,14.52
2022-10-28T05:52:50.027Z,13.07
2022-10-28T05:55:21.297Z,12.05
2022-10-28T05:57:49.651Z,11.80
2022-10-28T06:00:18.639Z,12.02
2022-10-28T06:02:46.276Z,11.23
2022-10-28T06:05:14.370Z,11.65
2022-10-28T06:07:42.240Z,10.63
2022-10-28T06:10:10.564Z,11.63
2022-10-28T06:12:36.802Z,11.80
2022-10-28T06:15:04.800Z,10.10
2022-10-28T06:17:32.456Z,10.45
2022-10-28T06:20:00.071Z,9.98
2022-10-28T06:22:27.763Z,10.18
2022-10-28T06:25:13.655Z,10.50
2022-10-28T06:27:41.374Z,9.32
2022-10-28T06:30:09.473Z,10.88
2022-10-28T06:32:37.105Z,10.10
2022-10-28T06:35:05.080Z,9.20
2022-10-28T06:37:32.856Z,9.25
2022-10-28T06:40:00.685Z,8.95
2022-10-28T06:42:28.430Z,8.38
2022-10-28T06:44:56.310Z,8.70
2022-10-28T06:47:25.495Z,8.27
2022-10-28T06:49:53.155Z,8.45
2022-10-28T06:52:20.859Z,8.40
2022-10-28T06:54:48.522Z,7.78
2022-10-28T06:57:16.239Z,7.40
2022-10-28T06:59:44.124Z,7.68
2022-10-28T07:02:12.393Z,7.28
2022-10-28T07:04:40.224Z,7.30
2022-10-28T07:07:08.020Z,7.40
2022-10-28T07:09:39.639Z,6.28
2022-10-28T07:12:08.212Z,6.90
2022-10-28T07:14:36.249Z,7.03
2022-10-28T07:17:04.445Z,6.57
2022-10-28T07:19:32.385Z,6.65
2022-10-28T07:22:00.086Z,6.60
2022-10-28T07:24:46.622Z,6.88
2022-10-28T07:27:15.587Z,6.93
2022-10-28T07:29:43.126Z,7.40
2022-10-28T07:32:11.276Z,7.43
2022-10-28T07:34:57.508Z,7.18
2022-10-28T07:37:25.182Z,6.75
2022-10-28T07:40:11.125Z,6.57
2022-10-28T07:42:39.120Z,6.68
2022-10-28T07:45:07.230Z,7.93
2022-10-28T07:47:34.952Z,7.80
2022-10-28T07:50:02.719Z,7.72
2022-10-28T07:52:30.635Z,7.45
2022-10-28T07:54:58.444Z,7.25
2022-10-28T07:57:26.108Z,8.63
2022-10-28T08:02:39.090Z,8.75
2022-10-28T08:05:06.960Z,7.68
2022-10-28T08:07:37.733Z,9.15
2022-10-28T08:10:06.939Z,10.00
2022-10-28T08:12:34.515Z,11.20
2022-10-28T08:15:03.014Z,12.07
2022-10-28T08:17:30.876Z,10.10
2022-10-28T08:19:58.781Z,12.93
2022-10-28T08:22:26.557Z,12.23
2022-10-28T08:24:54.351Z,14.65
2022-10-28T08:27:22.072Z,11.55
2022-10-28T08:29:49.831Z,12.60
2022-10-28T08:32:17.930Z,11.65
2022-10-28T08:34:45.578Z,12.02
2022-10-28T08:37:13.542Z,13.32
2022-10-28T08:39:41.307Z,11.80
2022-10-28T08:42:24.031Z,12.18
2022-10-28T08:45:30.045Z,13.98
2022-10-28T08:48:15.554Z,13.85
2022-10-28T08:50:50.655Z,9.80
2022-10-28T08:53:36.926Z,10.05
2022-10-28T08:56:38.934Z,11.00
2022-10-28T08:59:06.692Z,12.00
2022-10-28T09:04:26.340Z,9.15
2022-10-28T09:07:12.505Z,9.13
2022-10-28T09:09:58.873Z,12.15
2022-10-28T09:12:44.641Z,8.65
2022-10-28T09:15:26.847Z,12.43
2022-10-28T09:18:05.603Z,8.18
2022-10-28T09:20:49.022Z,7.35
2022-10-28T09:23:20.948Z,10.07
2022-10-28T09:25:58.484Z,8.45
2022-10-28T09:28:42.073Z,8.82
2022-10-28T09:31:36.746Z,9.98
2022-10-28T09:34:24.233Z,7.70
2022-10-28T09:37:25.881Z,8.38
2022-10-28T09:39:56.013Z,7.90
2022-10-28T09:45:14.162Z,7.63
2022-10-28T09:47:43.970Z,7.03
2022-10-28T09:50:18.182Z,8.10
2022-10-28T09:52:59.802Z,6.93
2022-10-28T09:55:31.778Z,7.30
2022-10-28T09:58:03.669Z,8.15
2022-10-28T10:00:31.795Z,7.60
2022-10-28T10:03:18.318Z,7.60
2022-10-28T10:05:49.267Z,7.15
2022-10-28T10:08:18.186Z,7.00
2022-10-28T10:10:49.175Z,5.47
2022-10-28T10:16:14.457Z,6.45
2022-10-28T10:19:00.801Z,6.22
2022-10-28T10:21:46.718Z,6.43
2022-10-28T10:24:34.422Z,6.45
2022-10-28T10:27:10.989Z,6.32
2022-10-28T10:29:47.642Z,5.35
2022-10-28T10:32:19.712Z,6.40
2022-10-28T10:35:06.866Z,5.63
2022-10-28T10:37:35.763Z,6.22
2022-10-28T10:40:23.920Z,6.00
2022-10-28T10:43:13.049Z,6.55
2022-10-28T10:45:39.921Z,5.63
2022-10-28T10:48:18.510Z,5.88
2022-10-28T10:50:47.468Z,5.97
2022-10-28T10:53:23.925Z,5.47
2022-10-28T10:56:15.375Z,6.00
2022-10-28T10:58:51.803Z,4.88
2022-10-28T11:01:26.962Z,5.88
2022-10-28T11:06:33.444Z,4.88
2022-10-28T11:09:04.952Z,5.40
2022-10-28T11:11:46.550Z,5.82
2022-10-28T11:14:14.447Z,6.00
2022-10-28T11:17:00.987Z,6.00
2022-10-28T11:19:34.090Z,6.43
2022-10-28T11:22:39.257Z,6.00
2022-10-28T11:25:18.860Z,6.53
2022-10-28T11:28:04.446Z,6.55
2022-10-28T11:30:35.595Z,6.18
2022-10-28T11:33:29.312Z,6.63
2022-10-28T11:36:10.527Z,6.25
2022-10-28T11:38:53.256Z,6.55
2022-10-28T11:41:58.249Z,6.15
2022-10-28T11:44:51.462Z,6.18
2022-10-28T11:47:28.074Z,6.82
2022-10-28T11:50:49.461Z,6.35
2022-10-28T11:53:41.474Z,6.60
2022-10-28T11:56:21.633Z,6.03
2022-10-28T11:59:24.492Z,5.50
2022-10-28T12:02:29.351Z,5.57
2022-10-28T12:05:23.839Z,6.30
2022-10-28T12:08:25.683Z,6.50
2022-10-28T12:10:56.946Z,6.30
2022-10-28T12:13:55.831Z,4.85
2022-10-28T12:16:45.170Z,7.03
2022-10-28T12:19:15.628Z,6.28
2022-10-28T12:21:48.746Z,6.32
2022-10-28T12:24:19.561Z,5.78
2022-10-28T12:26:56.557Z,6.65
2022-10-28T12:29:33.800Z,6.32
2022-10-28T12:32:04.802Z,5.80
2022-10-28T12:34:47.592Z,5.82
2022-10-28T12:37:22.551Z,6.43
2022-10-28T12:40:15.716Z,6.85
2022-10-28T12:42:49.214Z,6.90
2022-10-28T12:45:17.902Z,6.80
2022-10-28T12:47:50.423Z,7.00
2022-10-28T12:50:29.369Z,5.20
2022-10-28T12:53:09.183Z,5.47
2022-10-28T12:55:47.331Z,6.80
2022-10-28T12:58:34.503Z,5.90
2022-10-28T13:01:13.982Z,6.38
2022-10-28T13:03:42.075Z,5.68
2022-10-28T13:06:12.231Z,6.22
2022-10-28T13:08:39.787Z,6.27
2022-10-28T13:11:19.634Z,5.97
2022-10-28T13:14:15.240Z,5.20
2022-10-28T13:17:06.549Z,5.53
2022-10-28T13:19:52.589Z,5.40
2022-10-28T13:22:46.320Z,6.25
2022-10-28T13:25:41.830Z,5.97
2022-10-28T13:28:16.455Z,6.68
2022-10-28T13:30:59.040Z,5.50
2022-10-28T13:33:27.973Z,6.15
2022-10-28T13:36:06.487Z,5.20
2022-10-28T13:38:34.181Z,5.78
2022-10-28T13:41:01.788Z,5.10
2022-10-28T13:44:20.488Z,5.82
2022-10-28T13:46:57.283Z,5.57
2022-10-28T13:49:31.366Z,5.85
2022-10-28T13:52:08.104Z,5.38
2022-10-28T13:54:44.864Z,5.00
2022-10-28T13:57:37.516Z,6.25
2022-10-28T14:00:17.367Z,5.97
2022-10-28T14:02:55.059Z,6.32
2022-10-28T14:05:37.771Z,6.07
2022-10-28T14:08:07.586Z,5.70
2022-10-28T14:10:37.360Z,6.20
2022-10-28T14:13:07.074Z,6.47
2022-10-28T14:15:38.412Z,5.78
2022-10-28T14:18:44.157Z,6.38
2022-10-28T14:21:12.560Z,6.15
2022-10-28T14:23:40.049Z,6.38
2022-10-28T14:26:08.085Z,5.78
2022-10-28T14:28:35.542Z,5.80
2022-10-28T14:31:09.226Z,10.50
2022-10-28T14:33:36.841Z,5.85
2022-10-28T14:36:17.306Z,6.85
2022-10-28T14:39:08.450Z,7.70
2022-10-28T14:41:54.707Z,7.13
2022-10-28T14:44:48.565Z,5.60
2022-10-28T14:47:53.673Z,6.70
2022-10-28T14:50:38.771Z,7.80
2022-10-28T14:53:30.494Z,6.28
2022-10-28T14:58:48.055Z,5.78
2022-10-28T15:01:18.872Z,5.95
2022-10-28T15:03:48.677Z,6.45
2022-10-28T15:06:41.969Z,7.13
2022-10-28T15:09:31.922Z,6.78
2022-10-28T15:12:01.626Z,6.15
2022-10-28T15:14:34.010Z,6.80
2022-10-28T15:17:14.534Z,6.35
2022-10-28T15:19:42.444Z,7.80
2022-10-28T15:22:30.880Z,7.28
2022-10-28T15:25:06.706Z,6.22
2022-10-28T15:27:38.560Z,7.05
2022-10-28T15:30:16.457Z,6.25
2022-10-28T15:32:44.161Z,6.93
2022-10-28T15:35:27.350Z,6.13
2022-10-28T15:37:55.422Z,6.45
2022-10-28T15:40:54.313Z,6.50
2022-10-28T15:43:27.968Z,8.93
2022-10-28T15:46:08.424Z,7.13
2022-10-28T15:48:36.193Z,8.33
2022-10-28T15:51:14.417Z,9.10
2022-10-28T15:53:45.970Z,9.32
2022-10-28T15:56:26.719Z,11.77
2022-10-28T15:59:23.498Z,12.13
2022-10-28T16:01:51.632Z,10.48
2022-10-28T16:04:19.514Z,11.52
2022-10-28T16:06:47.426Z,10.95
2022-10-28T16:09:39.759Z,10.43
2022-10-28T16:12:18.946Z,11.70
2022-10-28T16:15:02.029Z,9.05
2022-10-28T16:17:30.513Z,10.50
2022-10-28T16:20:17.195Z,8.38
2022-10-28T16:22:47.068Z,7.60
2022-10-28T16:25:20.702Z,11.23
2022-10-28T16:27:51.914Z,11.45
2022-10-28T16:32:48.983Z,13.50
2022-10-28T16:35:21.713Z,12.85
2022-10-28T16:38:11.252Z,12.52
2022-10-28T16:40:51.444Z,14.18
2022-10-28T16:43:21.639Z,13.75
2022-10-28T16:45:49.606Z,11.80
